Moultrie, GA

8:00 PM EDT on July 25, 2014 (GMT -0400)
City of Moultrie Service Center (KGAMOULT2) Elev 299 ft | 31.19 °N, 83.79 °W | Change Station

Current weather conditions updated 8 minutes ago

Overcast
Overcast
83.8 °F
Feels Like 92 °F
N
4.0
Wind Variable Wind from SW
Gusts 7.0 mph

Tomorrow is forecast to be nearly the same temperature as today. Afternoon showers and thunderstorms.

Today
High -- | Low -- °F
--% Chance of Precip.
Yesterday
High -- | Low -- °F
Precip. -- in
6:47 AM 8:35 PM
Waning Crescent, 1% visible
Pressure 30.02 in
Visibility 5.0 miles
Clouds Scattered Clouds 2400 ft
Mostly Cloudy 5000 ft
Overcast 7500 ft
Heat Index 92 °F
Dew Point 75 °F
Humidity 75%
Rainfall 0.14 in
Snow Depth Not available.
UV 0 out of 12
Pollen 4.50 out of 12
Air Quality Not available.
Flu Activity Not available.
METAR KMGR 252335Z AUTO 17006KT 5SM -RA SCT024 BKN050 OVC075 27/24 A3002 RMK AO2

More Conditions Fewer Conditions

Pressure 30.02 in
Visibility 5.0 miles
Clouds Scattered Clouds 2400 ft
Mostly Cloudy 5000 ft
Overcast 7500 ft
Heat Index 92 °F
Dew Point 75 °F
Humidity 75%
Rainfall 0.14 in
Snow Depth Not available.
UV 0 out of 12
Pollen 4.50 out of 12
Air Quality Not available.
Flu Activity Not available.
METAR KMGR 252335Z AUTO 17006KT 5SM -RA SCT024 BKN050 OVC075 27/24 A3002 RMK AO2

More Conditions Fewer Conditions

10-Day Weather Forecast

Almanac

Astronomy

Jul. 25, 2014 Rise Set
Actual Time 6:47 AM EDT 8:35 PM EDT
Civil Twilight 6:20 AM EDT 9:02 PM EDT
Nautical Twilight 5:48 AM EDT 9:34 PM EDT
Astronomical Twilight 5:14 AM EDT 10:08 PM EDT
Moon 5:43 AM EDT (7/25) 7:35 PM EDT (7/25)
Length of Visible Light 14h 41m
Length of Day
13h 47m
Tomorrow will be 1m 15s shorter.
Waning Crescent, 1% of the Moon is Illuminated
Today
Waning Crescent
Jul 26
New
Aug 3
First Quarter
Aug 10
Full
Aug 17
Last Quarter

Today's Extremes

State Highs State Lows

Community

WunderPhotos

Upload Photos

1,737,452 photos uploaded!

Nearby

Snow Depth

Station Depth Elevation
No new snow has been reported.

Earthquake Activity

City Distance Mag. Time & Date
No recent earthquake activity has been reported nearby.
Minimum magnitude displayed is 2.5.

Coastal Water Temperatures

Place Temperature
No Stations Reporting

Nearby Weather Stations

Station Location Temp. Heat Index Dew Point Humidity Wind Precip. Elev Updated Type
City of Moultrie Service Center, Moultrie, GA 83.8 °F 92 °F 75 °F 75% SW  at  4.0 mph 0.00 in / hr 299 ft 7:52 PM EDT Normal
RAWS ADEL GA, Cecil, GA 85 °F 91 °F 72 °F 66% SSW  at  7 mph 0.00 in / hr 231 ft 7:04 PM EDT MADIS

Show More Stations Show Fewer Stations